Robijn — PBEJ — position and weather

sailwx.info

Track history (hours):
 
Tides and Currents Weather Stations Pressure Air Temp Water Temp Dewpoint Dewpoint Depression Visibility Wind Speed Wind Dir Waves Ship Positions

Robijn

Last reported at 2017-Feb-23 11:33 UTC. Time now 2017-Feb-23 11:43 UTC.
Position N 53°40' E 014°31'.

Length 90 m; draft 3.5 m.

Type: Cargo ship. MMSI: 245909000.

Date/timePositionNaut miles runAvg speedWind from/ knotsBaromVisibWave heightAir tempDewpointWater temp
2017-Feb-23 11:33N 53°40' E 014°31'1010.4
2017-Feb-23 10:34N 53°31' E 014°38'5 4.8
2017-Feb-23 09:32N 53°26' E 014°35'0 0.0
2017-Feb-23 08:32N 53°26' E 014°35'0 0.0
2017-Feb-23 07:32N 53°26' E 014°35'0 0.0
2017-Feb-23 06:32N 53°26' E 014°35'0 0.0
2017-Feb-23 05:32N 53°26' E 014°35'0 0.0
2017-Feb-23 04:32N 53°26' E 014°35'0 0.0
2017-Feb-23 03:32N 53°26' E 014°35'0 0.0
2017-Feb-23 02:32N 53°26' E 014°35'0 0.0
2017-Feb-23 01:32N 53°26' E 014°35'0 0.0
2017-Feb-23 00:32N 53°26' E 014°35'0 0.0
2017-Feb-22 23:32N 53°26' E 014°35'0 0.0
2017-Feb-22 22:32N 53°26' E 014°35'0 0.0
2017-Feb-22 21:32N 53°26' E 014°35'0 0.0
2017-Feb-22 20:32N 53°26' E 014°35'0 0.0
2017-Feb-22 19:32N 53°26' E 014°35'0 0.0
2017-Feb-22 18:29N 53°26' E 014°35'0 0.0
2017-Feb-22 17:32N 53°26' E 014°35'0 0.0
2017-Feb-22 16:32N 53°26' E 014°35'0 0.0
2017-Feb-22 15:32N 53°26' E 014°35'0 0.0
2017-Feb-22 14:32N 53°26' E 014°35'0 0.0
2017-Feb-22 13:29N 53°26' E 014°35'3 3.3
2017-Feb-22 12:33N 53°29' E 014°37'10 9.6
2017-Feb-22 11:33N 53°38' E 014°34'1111.2
2017-Feb-22 10:33N 53°47' E 014°22'76 8.4
2017-Feb-22 01:31N 54°41' E 012°49'2210.3
2017-Feb-21 23:23N 54°30' E 012°16'810.1
2017-Feb-21 22:33N 54°24' E 012°06'1311.1
2017-Feb-21 21:25N 54°25' E 011°44'910.7
2017-Feb-21 20:33N 54°29' E 011°29'1312.8
2017-Feb-21 19:33N 54°34' E 011°09'1212.5
2017-Feb-21 18:33N 54°34' E 010°47'2411.1
2017-Feb-21 16:26N 54°46' E 010°12'47 0.9
2017-Feb-19 14:29N 54°09' E 009°21'8 8.6
2017-Feb-19 13:34N 54°01' E 009°18'5 4.9
2017-Feb-19 12:34N 53°57' E 009°14'1 1.2
2017-Feb-19 11:33N 53°56' E 009°12'3 3.1
2017-Feb-19 10:33N 53°54' E 009°09'6 5.7
2017-Feb-19 09:33N 53°51' E 009°00'8 8.3
2017-Feb-19 08:33N 53°51' E 008°46'9 8.7
2017-Feb-19 07:33N 53°57' E 008°36'9 9.5
2017-Feb-19 06:33N 53°59' E 008°21'1010.1
2017-Feb-19 05:33N 53°58' E 008°04'3311.1
2017-Feb-19 02:33N 53°52' E 007°08'1211.7
2017-Feb-19 01:32N 53°49' E 006°49'1211.8
2017-Feb-19 00:32N 53°45' E 006°30'1211.9
2017-Feb-18 23:32N 53°42' E 006°10'1211.9
2017-Feb-18 22:33N 53°38' E 005°52'1211.7
2017-Feb-18 21:33N 53°35' E 005°33'1211.6
2017-Feb-18 20:32N 53°31' E 005°14'1111.0
2017-Feb-18 19:32N 53°27' E 004°57'1010.2
2017-Feb-18 18:33N 53°22' E 004°42'1010.1
2017-Feb-18 17:32N 53°13' E 004°34'1010.1
2017-Feb-18 16:32N 53°04' E 004°27'1010.0
2017-Feb-18 15:33N 52°55' E 004°19'10 9.9
2017-Feb-18 14:33N 52°47' E 004°11'8 8.5
2017-Feb-18 13:33N 52°38' E 004°13'1010.3
2017-Feb-18 12:33N 52°31' E 004°25'7 7.2
2017-Feb-18 11:33N 52°28' E 004°36'0 0.0
2017-Feb-18 10:33N 52°28' E 004°36'0 0.0
2017-Feb-18 09:33N 52°28' E 004°36'0 0.0
2017-Feb-18 08:33N 52°28' E 004°36'0 0.0
2017-Feb-18 07:33N 52°28' E 004°36'0 0.0
2017-Feb-18 06:33N 52°28' E 004°36'0 0.0
2017-Feb-18 05:33N 52°28' E 004°36'0 0.0
2017-Feb-18 04:33N 52°28' E 004°36'0 0.0
2017-Feb-18 03:33N 52°28' E 004°36'0 0.0
2017-Feb-18 02:33N 52°28' E 004°36'0 0.0
2017-Feb-18 01:33N 52°28' E 004°36'0 0.0
2017-Feb-18 00:33N 52°28' E 004°36'0 0.0
2017-Feb-17 23:33N 52°28' E 004°36'0 0.0
2017-Feb-17 22:33N 52°28' E 004°36'0 0.0
2017-Feb-17 21:33N 52°28' E 004°36'0 0.0
2017-Feb-17 20:30N 52°28' E 004°36'0 0.0
2017-Feb-17 19:33N 52°28' E 004°36'0 0.0
2017-Feb-17 18:33N 52°28' E 004°36'0 0.0
2017-Feb-17 17:33N 52°28' E 004°36'0 0.0
2017-Feb-17 16:33N 52°28' E 004°36'0 0.0
2017-Feb-17 15:33N 52°28' E 004°36'0 0.0
2017-Feb-17 14:33N 52°28' E 004°36'0 0.0
2017-Feb-17 13:33N 52°28' E 004°36'0 0.0
2017-Feb-17 12:33N 52°28' E 004°36'0 0.0
2017-Feb-17 11:33N 52°28' E 004°36'0 0.0
2017-Feb-17 10:33N 52°28' E 004°36'0 0.0
2017-Feb-17 09:33N 52°28' E 004°36'0 0.0
2017-Feb-17 08:33N 52°28' E 004°36'0 0.0
2017-Feb-17 07:33N 52°28' E 004°36'0 0.0
2017-Feb-17 06:30N 52°28' E 004°36'0 0.0
2017-Feb-17 05:30N 52°28' E 004°36'0 0.0
2017-Feb-17 04:33N 52°28' E 004°36'0 0.0
2017-Feb-17 03:33N 52°28' E 004°36'0 0.0
2017-Feb-17 02:30N 52°28' E 004°36'0 0.0
2017-Feb-17 01:33N 52°28' E 004°36'0 0.0
2017-Feb-17 00:33N 52°28' E 004°36'0 0.0
2017-Feb-16 23:33N 52°28' E 004°36'0 0.0
2017-Feb-16 22:33N 52°28' E 004°36'0 0.0
2017-Feb-16 21:33N 52°28' E 004°36'0 0.0
2017-Feb-16 20:33N 52°28' E 004°36'0 0.4
2017-Feb-16 19:34N 52°28' E 004°36'1 1.2
2017-Feb-16 18:31N 52°28' E 004°38'0 0.0
2017-Feb-16 17:31N 52°28' E 004°38'0 0.0
2017-Feb-16 16:31N 52°28' E 004°38'0 0.0
2017-Feb-16 15:31N 52°28' E 004°38'0 0.0
2017-Feb-16 14:31N 52°28' E 004°38'0 0.0
2017-Feb-16 13:31N 52°28' E 004°38'0 0.0
2017-Feb-16 12:31N 52°28' E 004°38'0 0.0
2017-Feb-16 11:31N 52°28' E 004°38'0 0.0
2017-Feb-16 10:31N 52°28' E 004°38'0 0.0
2017-Feb-16 09:31N 52°28' E 004°38'0 0.0
2017-Feb-16 08:31N 52°28' E 004°38'0 0.0
2017-Feb-16 07:28N 52°28' E 004°38'0 0.0
2017-Feb-16 06:31N 52°28' E 004°38'0 0.0
2017-Feb-16 05:31N 52°28' E 004°38'0 0.0
2017-Feb-16 04:31N 52°28' E 004°38'0 0.0
2017-Feb-16 03:31N 52°28' E 004°38'0 0.0
2017-Feb-16 02:31N 52°28' E 004°38'3 3.3
2017-Feb-16 01:34N 52°26' E 004°42'6 6.3
2017-Feb-16 00:34N 52°24' E 004°52'0 0.0
2017-Feb-15 23:31N 52°24' E 004°52'0 0.0
2017-Feb-15 22:31N 52°24' E 004°52'0 0.0
2017-Feb-15 21:31N 52°24' E 004°52'0 0.0
2017-Feb-15 20:31N 52°24' E 004°52'0 0.0
2017-Feb-15 19:31N 52°24' E 004°52'0 0.0
2017-Feb-15 18:28N 52°24' E 004°52'0 0.0
2017-Feb-15 17:31N 52°24' E 004°52'0 0.0
2017-Feb-15 16:31N 52°24' E 004°52'0 0.0
2017-Feb-15 15:31N 52°24' E 004°52'0 0.0
2017-Feb-15 14:31N 52°24' E 004°52'0 0.0
2017-Feb-15 13:34N 52°24' E 004°52'1 1.4
2017-Feb-15 12:33N 52°25' E 004°50'0 0.0
2017-Feb-15 11:32N 52°25' E 004°50'0 0.0
2017-Feb-15 10:32N 52°25' E 004°50'0 0.3
2017-Feb-15 09:33N 52°25' E 004°50'9 8.8
2017-Feb-15 08:34N 52°28' E 004°36'5 5.3
2017-Feb-15 07:33N 52°28' E 004°27'10 9.7
2017-Feb-15 06:33N 52°29' E 004°11'9 9.2
2017-Feb-15 05:33N 52°37' E 004°04'9 9.2
2017-Feb-15 04:33N 52°45' E 003°59'11 9.7
2017-Feb-15 03:27N 52°56' E 004°01'910.3
2017-Feb-15 02:33N 53°03' E 004°12'1110.7
2017-Feb-15 01:33N 53°10' E 004°25'1110.6
2017-Feb-15 00:31N 53°20' E 004°32'9 9.7
2017-Feb-14 23:33N 53°28' E 004°40'10 9.3
2017-Feb-14 22:29N 53°32' E 004°56'25 8.4
2017-Feb-14 19:31N 53°40' E 005°35'13 9.5
2017-Feb-14 18:09N 53°44' E 005°56'5110.9
2017-Feb-14 13:27N 53°58' E 007°20'9 9.9
2017-Feb-14 12:30N 54°00' E 007°35'9 9.2
2017-Feb-14 11:33N 54°01' E 007°50'9 9.2
2017-Feb-14 10:33N 54°01' E 008°06'10 9.9
2017-Feb-14 09:33N 53°60' E 008°22'1111.0
2017-Feb-14 08:34N 53°56' E 008°40'1211.9
2017-Feb-14 07:33N 53°51' E 008°58'7 7.4
2017-Feb-14 06:33N 53°54' E 009°10'8 8.2
2017-Feb-14 05:33N 54°01' E 009°18'8 8.2
2017-Feb-14 04:33N 54°09' E 009°21'1 0.5
2017-Feb-14 03:22N 54°09' E 009°22'7 7.8
2017-Feb-14 02:32N 54°12' E 009°32'11 7.8
2017-Feb-14 01:05N 54°20' E 009°45'6 7.3
2017-Feb-14 00:12N 54°21' E 009°56'5 7.3
2017-Feb-13 23:33N 54°22' E 010°04'3 3.0
2017-Feb-13 22:33N 54°22' E 010°09'5 4.8
2017-Feb-13 21:26N 54°26' E 010°14'910.3
2017-Feb-13 20:33N 54°32' E 010°25'1010.5
2017-Feb-13 19:33N 54°35' E 010°42'1111.0
2017-Feb-13 18:33N 54°36' E 011°02'1110.7
2017-Feb-13 17:33N 54°34' E 011°20'1110.5
2017-Feb-13 16:33N 54°29' E 011°36'1010.2
2017-Feb-13 15:33N 54°27' E 011°53'1010.4
2017-Feb-13 14:33N 54°28' E 012°11'1010.4
2017-Feb-13 13:33N 54°38' E 012°18'1110.7
2017-Feb-13 12:33N 54°44' E 012°33'  
Track history (hours):
 
Tides and Currents Weather Stations Pressure Air Temp Water Temp Dewpoint Dewpoint Depression Visibility Wind Speed Wind Dir Waves Ship Positions

Robijn

Last reported at 2017-Feb-23 11:33 UTC. Time now 2017-Feb-23 11:43 UTC.
Position N 53°40' E 014°31'.

Length 90 m; draft 3.5 m.

Type: Cargo ship. MMSI: 245909000.

Date/timePositionNaut miles runAvg speedWind from/ knotsBaromVisibWave heightAir tempDewpointWater temp
2017-Feb-23 11:33N 53°40' E 014°31'1010.4
2017-Feb-23 10:34N 53°31' E 014°38'5 4.8
2017-Feb-23 09:32N 53°26' E 014°35'0 0.0
2017-Feb-23 08:32N 53°26' E 014°35'0 0.0
2017-Feb-23 07:32N 53°26' E 014°35'0 0.0
2017-Feb-23 06:32N 53°26' E 014°35'0 0.0
2017-Feb-23 05:32N 53°26' E 014°35'0 0.0
2017-Feb-23 04:32N 53°26' E 014°35'0 0.0
2017-Feb-23 03:32N 53°26' E 014°35'0 0.0
2017-Feb-23 02:32N 53°26' E 014°35'0 0.0
2017-Feb-23 01:32N 53°26' E 014°35'0 0.0
2017-Feb-23 00:32N 53°26' E 014°35'0 0.0
2017-Feb-22 23:32N 53°26' E 014°35'0 0.0
2017-Feb-22 22:32N 53°26' E 014°35'0 0.0
2017-Feb-22 21:32N 53°26' E 014°35'0 0.0
2017-Feb-22 20:32N 53°26' E 014°35'0 0.0
2017-Feb-22 19:32N 53°26' E 014°35'0 0.0
2017-Feb-22 18:29N 53°26' E 014°35'0 0.0
2017-Feb-22 17:32N 53°26' E 014°35'0 0.0
2017-Feb-22 16:32N 53°26' E 014°35'0 0.0
2017-Feb-22 15:32N 53°26' E 014°35'0 0.0
2017-Feb-22 14:32N 53°26' E 014°35'0 0.0
2017-Feb-22 13:29N 53°26' E 014°35'3 3.3
2017-Feb-22 12:33N 53°29' E 014°37'10 9.6
2017-Feb-22 11:33N 53°38' E 014°34'1111.2
2017-Feb-22 10:33N 53°47' E 014°22'76 8.4
2017-Feb-22 01:31N 54°41' E 012°49'2210.3
2017-Feb-21 23:23N 54°30' E 012°16'810.1
2017-Feb-21 22:33N 54°24' E 012°06'1311.1
2017-Feb-21 21:25N 54°25' E 011°44'910.7
2017-Feb-21 20:33N 54°29' E 011°29'1312.8
2017-Feb-21 19:33N 54°34' E 011°09'1212.5
2017-Feb-21 18:33N 54°34' E 010°47'2411.1
2017-Feb-21 16:26N 54°46' E 010°12'47 0.9
2017-Feb-19 14:29N 54°09' E 009°21'8 8.6
2017-Feb-19 13:34N 54°01' E 009°18'5 4.9
2017-Feb-19 12:34N 53°57' E 009°14'1 1.2
2017-Feb-19 11:33N 53°56' E 009°12'3 3.1
2017-Feb-19 10:33N 53°54' E 009°09'6 5.7
2017-Feb-19 09:33N 53°51' E 009°00'8 8.3
2017-Feb-19 08:33N 53°51' E 008°46'9 8.7
2017-Feb-19 07:33N 53°57' E 008°36'9 9.5
2017-Feb-19 06:33N 53°59' E 008°21'1010.1
2017-Feb-19 05:33N 53°58' E 008°04'3311.1
2017-Feb-19 02:33N 53°52' E 007°08'1211.7
2017-Feb-19 01:32N 53°49' E 006°49'1211.8
2017-Feb-19 00:32N 53°45' E 006°30'1211.9
2017-Feb-18 23:32N 53°42' E 006°10'1211.9
2017-Feb-18 22:33N 53°38' E 005°52'1211.7
2017-Feb-18 21:33N 53°35' E 005°33'1211.6
2017-Feb-18 20:32N 53°31' E 005°14'1111.0
2017-Feb-18 19:32N 53°27' E 004°57'1010.2
2017-Feb-18 18:33N 53°22' E 004°42'1010.1
2017-Feb-18 17:32N 53°13' E 004°34'1010.1
2017-Feb-18 16:32N 53°04' E 004°27'1010.0
2017-Feb-18 15:33N 52°55' E 004°19'10 9.9
2017-Feb-18 14:33N 52°47' E 004°11'8 8.5
2017-Feb-18 13:33N 52°38' E 004°13'1010.3
2017-Feb-18 12:33N 52°31' E 004°25'7 7.2
2017-Feb-18 11:33N 52°28' E 004°36'0 0.0
2017-Feb-18 10:33N 52°28' E 004°36'0 0.0
2017-Feb-18 09:33N 52°28' E 004°36'0 0.0
2017-Feb-18 08:33N 52°28' E 004°36'0 0.0
2017-Feb-18 07:33N 52°28' E 004°36'0 0.0
2017-Feb-18 06:33N 52°28' E 004°36'0 0.0
2017-Feb-18 05:33N 52°28' E 004°36'0 0.0
2017-Feb-18 04:33N 52°28' E 004°36'0 0.0
2017-Feb-18 03:33N 52°28' E 004°36'0 0.0
2017-Feb-18 02:33N 52°28' E 004°36'0 0.0
2017-Feb-18 01:33N 52°28' E 004°36'0 0.0
2017-Feb-18 00:33N 52°28' E 004°36'0 0.0
2017-Feb-17 23:33N 52°28' E 004°36'0 0.0
2017-Feb-17 22:33N 52°28' E 004°36'0 0.0
2017-Feb-17 21:33N 52°28' E 004°36'0 0.0
2017-Feb-17 20:30N 52°28' E 004°36'0 0.0
2017-Feb-17 19:33N 52°28' E 004°36'0 0.0
2017-Feb-17 18:33N 52°28' E 004°36'0 0.0
2017-Feb-17 17:33N 52°28' E 004°36'0 0.0
2017-Feb-17 16:33N 52°28' E 004°36'0 0.0
2017-Feb-17 15:33N 52°28' E 004°36'0 0.0
2017-Feb-17 14:33N 52°28' E 004°36'0 0.0
2017-Feb-17 13:33N 52°28' E 004°36'0 0.0
2017-Feb-17 12:33N 52°28' E 004°36'0 0.0
2017-Feb-17 11:33N 52°28' E 004°36'0 0.0
2017-Feb-17 10:33N 52°28' E 004°36'0 0.0
2017-Feb-17 09:33N 52°28' E 004°36'0 0.0
2017-Feb-17 08:33N 52°28' E 004°36'0 0.0
2017-Feb-17 07:33N 52°28' E 004°36'0 0.0
2017-Feb-17 06:30N 52°28' E 004°36'0 0.0
2017-Feb-17 05:30N 52°28' E 004°36'0 0.0
2017-Feb-17 04:33N 52°28' E 004°36'0 0.0
2017-Feb-17 03:33N 52°28' E 004°36'0 0.0
2017-Feb-17 02:30N 52°28' E 004°36'0 0.0
2017-Feb-17 01:33N 52°28' E 004°36'0 0.0
2017-Feb-17 00:33N 52°28' E 004°36'0 0.0
2017-Feb-16 23:33N 52°28' E 004°36'0 0.0
2017-Feb-16 22:33N 52°28' E 004°36'0 0.0
2017-Feb-16 21:33N 52°28' E 004°36'0 0.0
2017-Feb-16 20:33N 52°28' E 004°36'0 0.4
2017-Feb-16 19:34N 52°28' E 004°36'1 1.2
2017-Feb-16 18:31N 52°28' E 004°38'0 0.0
2017-Feb-16 17:31N 52°28' E 004°38'0 0.0
2017-Feb-16 16:31N 52°28' E 004°38'0 0.0
2017-Feb-16 15:31N 52°28' E 004°38'0 0.0
2017-Feb-16 14:31N 52°28' E 004°38'0 0.0
2017-Feb-16 13:31N 52°28' E 004°38'0 0.0
2017-Feb-16 12:31N 52°28' E 004°38'0 0.0
2017-Feb-16 11:31N 52°28' E 004°38'0 0.0
2017-Feb-16 10:31N 52°28' E 004°38'0 0.0
2017-Feb-16 09:31N 52°28' E 004°38'0 0.0
2017-Feb-16 08:31N 52°28' E 004°38'0 0.0
2017-Feb-16 07:28N 52°28' E 004°38'0 0.0
2017-Feb-16 06:31N 52°28' E 004°38'0 0.0
2017-Feb-16 05:31N 52°28' E 004°38'0 0.0
2017-Feb-16 04:31N 52°28' E 004°38'0 0.0
2017-Feb-16 03:31N 52°28' E 004°38'0 0.0
2017-Feb-16 02:31N 52°28' E 004°38'3 3.3
2017-Feb-16 01:34N 52°26' E 004°42'6 6.3
2017-Feb-16 00:34N 52°24' E 004°52'0 0.0
2017-Feb-15 23:31N 52°24' E 004°52'0 0.0
2017-Feb-15 22:31N 52°24' E 004°52'0 0.0
2017-Feb-15 21:31N 52°24' E 004°52'0 0.0
2017-Feb-15 20:31N 52°24' E 004°52'0 0.0
2017-Feb-15 19:31N 52°24' E 004°52'0 0.0
2017-Feb-15 18:28N 52°24' E 004°52'0 0.0
2017-Feb-15 17:31N 52°24' E 004°52'0 0.0
2017-Feb-15 16:31N 52°24' E 004°52'0 0.0
2017-Feb-15 15:31N 52°24' E 004°52'0 0.0
2017-Feb-15 14:31N 52°24' E 004°52'0 0.0
2017-Feb-15 13:34N 52°24' E 004°52'1 1.4
2017-Feb-15 12:33N 52°25' E 004°50'0 0.0
2017-Feb-15 11:32N 52°25' E 004°50'0 0.0
2017-Feb-15 10:32N 52°25' E 004°50'0 0.3
2017-Feb-15 09:33N 52°25' E 004°50'9 8.8
2017-Feb-15 08:34N 52°28' E 004°36'5 5.3
2017-Feb-15 07:33N 52°28' E 004°27'10 9.7
2017-Feb-15 06:33N 52°29' E 004°11'9 9.2
2017-Feb-15 05:33N 52°37' E 004°04'9 9.2
2017-Feb-15 04:33N 52°45' E 003°59'11 9.7
2017-Feb-15 03:27N 52°56' E 004°01'910.3
2017-Feb-15 02:33N 53°03' E 004°12'1110.7
2017-Feb-15 01:33N 53°10' E 004°25'1110.6
2017-Feb-15 00:31N 53°20' E 004°32'9 9.7
2017-Feb-14 23:33N 53°28' E 004°40'10 9.3
2017-Feb-14 22:29N 53°32' E 004°56'25 8.4
2017-Feb-14 19:31N 53°40' E 005°35'13 9.5
2017-Feb-14 18:09N 53°44' E 005°56'5110.9
2017-Feb-14 13:27N 53°58' E 007°20'9 9.9
2017-Feb-14 12:30N 54°00' E 007°35'9 9.2
2017-Feb-14 11:33N 54°01' E 007°50'9 9.2
2017-Feb-14 10:33N 54°01' E 008°06'10 9.9
2017-Feb-14 09:33N 53°60' E 008°22'1111.0
2017-Feb-14 08:34N 53°56' E 008°40'1211.9
2017-Feb-14 07:33N 53°51' E 008°58'7 7.4
2017-Feb-14 06:33N 53°54' E 009°10'8 8.2
2017-Feb-14 05:33N 54°01' E 009°18'8 8.2
2017-Feb-14 04:33N 54°09' E 009°21'1 0.5
2017-Feb-14 03:22N 54°09' E 009°22'7 7.8
2017-Feb-14 02:32N 54°12' E 009°32'11 7.8
2017-Feb-14 01:05N 54°20' E 009°45'6 7.3
2017-Feb-14 00:12N 54°21' E 009°56'5 7.3
2017-Feb-13 23:33N 54°22' E 010°04'3 3.0
2017-Feb-13 22:33N 54°22' E 010°09'5 4.8
2017-Feb-13 21:26N 54°26' E 010°14'910.3
2017-Feb-13 20:33N 54°32' E 010°25'1010.5
2017-Feb-13 19:33N 54°35' E 010°42'1111.0
2017-Feb-13 18:33N 54°36' E 011°02'1110.7
2017-Feb-13 17:33N 54°34' E 011°20'1110.5
2017-Feb-13 16:33N 54°29' E 011°36'1010.2
2017-Feb-13 15:33N 54°27' E 011°53'1010.4
2017-Feb-13 14:33N 54°28' E 012°11'1010.4
2017-Feb-13 13:33N 54°38' E 012°18'1110.7
2017-Feb-13 12:33N 54°44' E 012°33'  

Dump ship's entire track history